Time;durP1;ratioP1;P1;durP2;ratioP2;P2;SDS_P1;SDS_P2;PMS_P1;PMS_P2;Temp;Humidity;BMP_temperature;BMP_pressure;BME280_temperature;BME280_humidity;BME280_pressure;Samples;Min_cycle;Max_cycle;Signal;HPM_P1;HPM_P2
2023/06/24 00:01:43;;;;;;;12.80;9.45;;;;;;;16.84;100.00;102438.44;4915437;28;20047;-80
2023/06/24 00:04:11;;;;;;;10.00;8.95;;;;;;;16.81;100.00;102431.31;4968823;28;20043;-80
2023/06/24 00:06:39;;;;;;;11.63;8.10;;;;;;;16.79;100.00;102438.41;4921472;29;20051;-80
2023/06/24 00:09:07;;;;;;;11.10;8.50;;;;;;;16.79;100.00;102442.84;4948583;29;20065;-81
2023/06/24 00:11:35;;;;;;;13.73;9.32;;;;;;;16.76;100.00;102438.38;4951216;29;20047;-82
2023/06/24 00:14:02;;;;;;;12.35;9.48;;;;;;;16.74;100.00;102437.50;4939801;28;20777;-81
2023/06/24 00:16:30;;;;;;;11.25;9.18;;;;;;;16.72;100.00;102440.13;4914480;28;20062;-80
2023/06/24 00:18:58;;;;;;;11.13;9.00;;;;;;;16.71;100.00;102443.69;4926500;28;20070;-80
2023/06/24 00:21:30;;;;;;;10.15;8.55;;;;;;;16.69;100.00;102437.50;4955790;29;20055;-80
2023/06/24 00:23:58;;;;;;;10.40;9.30;;;;;;;16.68;100.00;102449.00;4953863;29;20055;-80
2023/06/24 00:26:25;;;;;;;12.30;9.25;;;;;;;16.66;100.00;102447.22;4922626;29;20813;-80
2023/06/24 00:28:52;;;;;;;11.30;9.40;;;;;;;16.62;100.00;102448.13;4948627;28;20047;-80
2023/06/24 00:31:21;;;;;;;12.43;9.23;;;;;;;16.60;100.00;102448.09;4922700;28;20043;-81
2023/06/24 00:33:49;;;;;;;14.68;11.55;;;;;;;16.59;100.00;102454.28;4954594;29;20054;-80
2023/06/24 00:36:19;;;;;;;11.77;10.50;;;;;;;16.56;100.00;102454.31;4946498;28;20047;-80
2023/06/24 00:38:48;;;;;;;11.88;9.63;;;;;;;16.54;100.00;102454.28;4940156;29;20055;-80
2023/06/24 00:41:18;;;;;;;12.20;9.60;;;;;;;16.51;100.00;102448.06;4924266;29;20070;-81
2023/06/24 00:43:46;;;;;;;11.37;9.83;;;;;;;16.49;100.00;102453.38;4956555;28;20052;-81
2023/06/24 00:46:15;;;;;;;12.45;9.68;;;;;;;16.48;100.00;102450.69;4931760;29;20052;-81
2023/06/24 00:48:43;;;;;;;13.77;10.10;;;;;;;16.46;100.00;102453.34;4937321;28;20051;-81
2023/06/24 00:51:10;;;;;;;13.43;10.32;;;;;;;16.44;100.00;102448.91;4924932;28;20058;-81
2023/06/24 00:53:38;;;;;;;12.10;10.10;;;;;;;16.42;100.00;102454.22;4947518;29;20051;-81
2023/06/24 00:56:06;;;;;;;13.02;10.32;;;;;;;16.40;100.00;102455.09;4971591;28;20043;-81
2023/06/24 00:58:36;;;;;;;13.60;10.40;;;;;;;16.38;100.00;102450.66;4956889;28;20055;-80
2023/06/24 01:01:05;;;;;;;12.18;10.88;;;;;;;16.35;100.00;102450.66;4945409;28;20703;-81
2023/06/24 01:03:33;;;;;;;13.68;9.68;;;;;;;16.34;100.00;102454.19;4908824;28;20056;-81
2023/06/24 01:06:02;;;;;;;13.32;10.75;;;;;;;16.31;100.00;102455.94;4944354;28;20047;-81
2023/06/24 01:08:30;;;;;;;14.88;10.18;;;;;;;16.28;100.00;102458.59;4964632;28;20066;-80
2023/06/24 01:10:58;;;;;;;14.38;11.35;;;;;;;16.26;100.00;102463.03;4965786;28;20071;-81
2023/06/24 01:13:26;;;;;;;17.50;10.85;;;;;;;16.24;100.00;102454.13;4963530;28;20055;-81
2023/06/24 01:15:54;;;;;;;13.27;11.23;;;;;;;16.22;100.00;102447.91;4947490;28;20038;-81
2023/06/24 01:18:38;;;;;;;16.38;10.68;;;;;;;16.19;100.00;102448.78;4906126;29;20051;-80
2023/06/24 01:21:15;;;;;;;13.63;10.60;;;;;;;16.18;100.00;102441.69;4961983;28;20053;-81
2023/06/24 01:23:48;;;;;;;11.45;10.05;;;;;;;16.17;100.00;102442.59;4963360;28;20725;-81
2023/06/24 01:26:42;;;;;;;11.93;10.00;;;;;;;16.16;100.00;102443.44;4939107;29;20055;-81
2023/06/24 01:29:21;;;;;;;11.32;9.95;;;;;;;16.15;100.00;102439.03;4941041;29;20071;-81
2023/06/24 01:32:12;;;;;;;11.40;10.15;;;;;;;16.13;100.00;102441.66;4943452;28;20047;-81
2023/06/24 01:34:57;;;;;;;13.05;10.07;;;;;;;16.10;100.00;102431.00;4917820;28;20039;-81
2023/06/24 01:37:37;;;;;;;13.00;10.70;;;;;;;16.09;100.00;102431.03;4957312;28;20402;-81
2023/06/24 01:40:14;;;;;;;11.02;9.35;;;;;;;16.06;100.00;102428.34;4928049;29;20055;-81
2023/06/24 01:42:44;;;;;;;11.32;10.13;;;;;;;16.04;100.00;102424.78;4952573;29;20047;-81
2023/06/24 01:45:14;;;;;;;16.02;10.43;;;;;;;16.02;100.00;102423.88;4934482;29;20052;-81
2023/06/24 01:47:47;;;;;;;13.68;10.90;;;;;;;16.01;100.00;102424.75;4913109;29;20133;-81
2023/06/24 01:50:19;;;;;;;13.45;10.52;;;;;;;16.00;100.00;102425.66;4930060;28;20066;-80
2023/06/24 01:52:52;;;;;;;12.18;10.23;;;;;;;15.98;100.00;102429.16;4953276;28;20059;-81
2023/06/24 01:55:21;;;;;;;13.48;10.73;;;;;;;15.96;100.00;102416.75;4943368;28;20054;-80
2023/06/24 01:57:50;;;;;;;12.52;9.80;;;;;;;15.94;100.00;102423.84;4950984;29;20051;-81
2023/06/24 02:00:18;;;;;;;14.57;10.65;;;;;;;15.92;100.00;102425.59;4953388;29;20047;-81
2023/06/24 02:02:50;;;;;;;12.70;10.52;;;;;;;15.91;100.00;102418.50;4959062;28;20524;-81
2023/06/24 02:05:20;;;;;;;12.57;9.95;;;;;;;15.90;100.00;102419.38;4912879;28;20051;-81
2023/06/24 02:07:51;;;;;;;12.23;9.85;;;;;;;15.90;100.00;102414.06;4952158;29;20051;-79
2023/06/24 02:10:21;;;;;;;12.38;10.50;;;;;;;15.89;100.00;102406.97;4976091;28;20047;-81
2023/06/24 02:12:51;;;;;;;14.55;10.50;;;;;;;15.88;100.00;102410.50;4949717;29;20528;-81
2023/06/24 02:15:21;;;;;;;13.10;9.70;;;;;;;15.86;100.00;102413.16;4934767;29;20056;-80
2023/06/24 02:17:52;;;;;;;13.18;9.82;;;;;;;15.85;100.00;102400.75;4962639;28;20078;-81
2023/06/24 02:20:21;;;;;;;13.30;9.48;;;;;;;15.84;100.00;102400.72;4932434;29;20051;-81
2023/06/24 02:22:51;;;;;;;14.93;9.93;;;;;;;15.82;100.00;102405.16;4915306;28;20051;-80
2023/06/24 02:25:19;;;;;;;11.93;10.05;;;;;;;15.81;100.00;102406.03;4941222;28;20052;-79
2023/06/24 02:27:47;;;;;;;16.42;10.30;;;;;;;15.81;100.00;102398.06;4934791;29;20055;-82
2023/06/24 02:30:16;;;;;;;15.02;9.95;;;;;;;15.79;100.00;102396.28;4933745;29;20070;-80
2023/06/24 02:32:43;;;;;;;12.48;10.13;;;;;;;15.80;100.00;102405.13;4937465;29;20051;-79
2023/06/24 02:35:11;;;;;;;13.75;9.60;;;;;;;15.78;100.00;102405.16;4942875;28;20784;-80
2023/06/24 02:37:38;;;;;;;10.85;9.48;;;;;;;15.79;100.00;102414.00;4928032;28;20506;-80
2023/06/24 02:40:08;;;;;;;10.88;9.57;;;;;;;15.78;100.00;102414.84;4959896;28;20059;-80
2023/06/24 02:42:36;;;;;;;12.15;9.95;;;;;;;15.76;100.00;102404.25;4951206;28;20049;-80
2023/06/24 02:45:06;;;;;;;11.73;10.52;;;;;;;15.75;100.00;102413.09;4934099;29;20050;-80
2023/06/24 02:47:36;;;;;;;14.48;10.45;;;;;;;15.74;100.00;102410.41;4966793;28;20051;-80
2023/06/24 02:50:09;;;;;;;13.27;10.65;;;;;;;15.72;100.00;102413.03;4921159;28;20062;-80
2023/06/24 02:52:37;;;;;;;12.60;10.45;;;;;;;15.70;100.00;102414.78;4911836;28;20059;-80
2023/06/24 02:55:09;;;;;;;12.07;10.52;;;;;;;15.69;100.00;102409.44;4948785;29;20056;-80
2023/06/24 02:57:56;;;;;;;15.25;10.77;;;;;;;15.65;100.00;102416.53;4966753;28;20051;-80
2023/06/24 03:00:59;;;;;;;13.90;10.30;;;;;;;15.64;100.00;102419.19;4912048;29;20058;-80
2023/06/24 03:03:56;;;;;;;13.73;10.63;;;;;;;15.62;100.00;102428.91;4949393;29;20070;-80
2023/06/24 03:06:24;;;;;;;14.27;11.80;;;;;;;15.59;100.00;102414.72;4944193;28;20051;-80
2023/06/24 03:08:55;;;;;;;19.05;12.23;;;;;;;15.59;100.00;102414.72;4896071;29;20554;-80
2023/06/24 03:11:25;;;;;;;16.13;12.32;;;;;;;15.58;100.00;102423.56;4917443;29;20522;-80
2023/06/24 03:13:54;;;;;;;13.98;11.10;;;;;;;15.58;100.00;102415.59;4948612;28;20067;-80
2023/06/24 03:16:26;;;;;;;14.75;11.10;;;;;;;15.58;100.00;102420.91;4951516;29;20043;-80
2023/06/24 03:19:02;;;;;;;16.08;11.10;;;;;;;15.57;100.00;102411.13;4948565;28;20050;-80
2023/06/24 03:21:30;;;;;;;16.63;10.90;;;;;;;15.57;100.00;102413.78;4943559;28;20044;-80
2023/06/24 03:24:16;;;;;;;15.32;11.40;;;;;;;15.56;100.00;102419.13;4901352;28;20047;-80
2023/06/24 03:26:47;;;;;;;13.07;11.32;;;;;;;15.54;100.00;102420.88;4919025;29;20047;-80
2023/06/24 03:29:16;;;;;;;17.77;12.68;;;;;;;15.54;100.00;102426.19;4927024;29;20066;-80
2023/06/24 03:32:04;;;;;;;14.00;11.63;;;;;;;15.52;100.00;102425.25;4968723;28;20066;-80
2023/06/24 03:34:33;;;;;;;17.20;11.48;;;;;;;15.52;100.00;102419.94;4983526;28;20055;-80
2023/06/24 03:37:00;;;;;;;15.57;11.20;;;;;;;15.51;100.00;102426.16;4949208;28;20051;-80
2023/06/24 03:39:29;;;;;;;18.00;13.15;;;;;;;15.51;100.00;102419.06;4941180;29;20046;-80
2023/06/24 03:41:57;;;;;;;15.90;11.25;;;;;;;15.51;100.00;102419.06;4883308;29;20048;-80
2023/06/24 03:44:24;;;;;;;16.95;12.48;;;;;;;15.51;100.00;102411.09;4911165;28;20066;-81
2023/06/24 03:46:52;;;;;;;17.42;12.00;;;;;;;15.53;100.00;102409.34;4934347;29;20058;-81
2023/06/24 03:49:20;;;;;;;17.02;12.07;;;;;;;15.53;100.00;102406.69;4950355;29;20066;-81
2023/06/24 03:51:49;;;;;;;15.90;12.52;;;;;;;15.54;100.00;102413.78;4958582;28;20047;-80
2023/06/24 03:54:17;;;;;;;18.88;12.98;;;;;;;15.55;100.00;102409.38;4948919;28;20051;-80
2023/06/24 03:56:46;;;;;;;16.80;13.07;;;;;;;15.58;100.00;102409.41;4917993;28;20406;-80
2023/06/24 03:59:15;;;;;;;15.85;12.27;;;;;;;15.62;100.00;102411.19;4958929;28;20106;-81
2023/06/24 04:01:42;;;;;;;20.30;12.68;;;;;;;15.68;100.00;102420.97;4938379;28;21006;-80
2023/06/24 04:04:10;;;;;;;19.67;12.38;;;;;;;15.72;100.00;102421.00;4943490;29;20066;-80
2023/06/24 04:06:38;;;;;;;16.45;13.40;;;;;;;15.86;100.00;102414.91;4960395;28;20415;-79
2023/06/24 04:09:06;;;;;;;18.95;15.25;;;;;;;16.06;100.00;102415.03;4971966;28;20039;-79
2023/06/24 04:11:34;;;;;;;18.85;13.80;;;;;;;16.44;100.00;102415.19;4928197;28;20043;-81
2023/06/24 04:14:01;;;;;;;17.83;13.52;;;;;;;16.98;100.00;102417.19;4931560;29;20058;-80
2023/06/24 04:16:29;;;;;;;20.85;11.88;;;;;;;17.44;100.00;102418.06;4940984;28;20062;-80
2023/06/24 04:18:57;;;;;;;16.95;12.70;;;;;;;17.87;100.00;102415.38;4934302;29;20074;-81
2023/06/24 04:21:25;;;;;;;14.27;12.10;;;;;;;18.25;100.00;102414.38;4965974;28;20047;-80
2023/06/24 04:23:53;;;;;;;12.30;11.00;;;;;;;18.56;100.00;102424.91;4953266;28;20055;-81
2023/06/24 04:26:21;;;;;;;14.48;10.55;;;;;;;18.76;100.00;102431.94;4904550;28;20055;-79
2023/06/24 04:28:49;;;;;;;15.95;11.52;;;;;;;18.92;100.00;102435.44;4965529;28;20047;-80
2023/06/24 04:31:19;;;;;;;16.05;10.70;;;;;;;19.12;100.00;102435.31;4946477;28;20050;-80
2023/06/24 04:33:48;;;;;;;16.98;11.25;;;;;;;19.19;100.00;102434.38;4935015;29;20062;-80
2023/06/24 04:36:18;;;;;;;14.93;10.35;;;;;;;19.29;100.00;102433.41;4944662;29;20565;-79
2023/06/24 04:38:47;;;;;;;14.48;10.15;;;;;;;19.58;100.00;102429.56;4953872;28;20051;-80
2023/06/24 04:41:15;;;;;;;13.35;10.27;;;;;;;19.84;100.00;102427.56;4910559;28;20070;-81
2023/06/24 04:43:43;;;;;;;14.93;9.75;;;;;;;20.14;100.00;102425.47;4950058;29;20055;-81
2023/06/24 04:46:10;;;;;;;12.40;9.35;;;;;;;20.43;100.00;102424.22;4922685;29;20066;-80
2023/06/24 04:48:38;;;;;;;13.02;9.40;;;;;;;20.72;100.00;102425.63;4946204;28;20054;-80
2023/06/24 04:51:06;;;;;;;15.45;9.75;;;;;;;21.09;100.00;102417.06;4935671;29;20070;-80
2023/06/24 04:53:34;;;;;;;13.18;9.50;;;;;;;21.48;100.00;102428.94;4976675;28;20058;-80
2023/06/24 04:56:03;;;;;;;14.90;9.20;;;;;;;21.78;100.00;102418.59;4900768;29;20699;-81
2023/06/24 04:58:31;;;;;;;12.32;8.93;;;;;;;22.11;100.00;102419.72;4927021;28;20071;-81
2023/06/24 05:00:58;;;;;;;11.77;8.00;;;;;;;22.51;100.00;102424.31;4931778;29;20047;-79
2023/06/24 05:03:27;;;;;;;9.70;7.85;;;;;;;22.92;100.00;102419.75;4937558;28;20063;-80
2023/06/24 05:05:55;;;;;;;12.48;8.63;;;;;;;23.30;100.00;102420.66;4954959;28;20074;-80
2023/06/24 05:08:22;;;;;;;11.50;8.77;;;;;;;23.63;100.00;102425.22;4982378;28;20042;-80
2023/06/24 05:10:50;;;;;;;11.35;8.13;;;;;;;23.90;100.00;102426.31;4951665;28;20134;-80
2023/06/24 05:13:17;;;;;;;13.25;8.27;;;;;;;23.98;100.00;102421.59;4924312;28;20060;-80
2023/06/24 05:15:45;;;;;;;13.88;8.45;;;;;;;24.04;100.00;102423.22;4955218;29;20051;-80
2023/06/24 05:18:12;;;;;;;15.05;8.55;;;;;;;24.13;100.00;102418.47;4950677;28;20128;-81
2023/06/24 05:20:40;;;;;;;10.80;7.97;;;;;;;24.29;100.00;102427.00;4931643;28;20051;-81
2023/06/24 05:23:08;;;;;;;12.35;7.95;;;;;;;24.43;100.00;102421.19;4951825;28;20043;-81
2023/06/24 05:25:36;;;;;;;15.48;8.02;;;;;;;24.37;100.00;102423.19;4926019;28;20047;-80
2023/06/24 05:28:05;;;;;;;10.88;7.55;;;;;;;24.06;100.00;102416.84;4941073;28;20054;-80
2023/06/24 05:30:32;;;;;;;9.95;7.90;;;;;;;23.72;100.00;102419.59;4957833;28;20059;-80
2023/06/24 05:33:00;;;;;;;10.60;8.00;;;;;;;23.30;100.00;102415.28;4945190;29;20062;-80
2023/06/24 05:35:28;;;;;;;13.63;8.13;;;;;;;23.10;100.00;102417.59;4963952;28;20042;-79
2023/06/24 05:37:57;;;;;;;9.43;7.70;;;;;;;23.30;100.00;102417.97;4950356;29;20055;-80
2023/06/24 05:40:25;;;;;;;14.77;7.85;;;;;;;23.69;100.00;102408.91;4965929;28;20074;-81
2023/06/24 05:42:52;;;;;;;9.75;7.80;;;;;;;24.06;100.00;102408.78;4967983;28;20082;-81
2023/06/24 05:45:20;;;;;;;8.35;7.20;;;;;;;24.43;100.00;102410.41;4926978;28;20051;-81
2023/06/24 05:47:47;;;;;;;10.93;7.70;;;;;;;24.83;100.00;102408.31;4919613;29;20044;-83
2023/06/24 05:50:15;;;;;;;10.88;7.38;;;;;;;25.27;100.00;102406.00;4967459;28;20077;-83
2023/06/24 05:52:42;;;;;;;8.13;6.82;;;;;;;25.70;100.00;102403.63;4938247;29;20058;-84
2023/06/24 05:55:10;;;;;;;8.80;5.97;;;;;;;26.12;98.44;102405.72;4934614;29;20046;-83
2023/06/24 05:57:38;;;;;;;8.77;6.85;;;;;;;26.51;94.95;102406.00;4955524;28;20062;-84
2023/06/24 06:00:07;;;;;;;10.18;6.22;;;;;;;26.86;90.86;102411.84;4917264;28;20410;-83
2023/06/24 06:02:42;;;;;;;9.27;6.60;;;;;;;27.20;87.48;102405.03;4953394;28;20066;-82
2023/06/24 06:05:09;;;;;;;8.43;6.85;;;;;;;27.41;84.91;102403.25;4923398;28;20058;-83
2023/06/24 06:07:39;;;;;;;8.18;6.07;;;;;;;27.55;82.57;102417.06;4932657;29;20054;-84
2023/06/24 06:10:07;;;;;;;7.38;6.63;;;;;;;27.58;81.51;102400.72;4955032;29;20058;-84
2023/06/24 06:12:42;;;;;;;13.15;6.63;;;;;;;27.51;80.74;102401.91;4941831;28;20051;-84
2023/06/24 06:15:10;;;;;;;9.93;6.30;;;;;;;27.32;79.41;102396.44;4958533;29;20047;-84
2023/06/24 06:17:37;;;;;;;8.40;6.10;;;;;;;27.20;81.32;102402.31;4927794;28;20055;-84
2023/06/24 06:20:05;;;;;;;7.78;5.53;;;;;;;27.11;79.68;102403.59;4940379;29;20414;-84
2023/06/24 06:22:37;;;;;;;6.72;5.30;;;;;;;26.95;79.65;102414.16;4952605;28;20077;-84
2023/06/24 06:25:06;;;;;;;6.93;5.00;;;;;;;26.81;79.36;102413.88;4969198;28;20047;-85
2023/06/24 06:27:33;;;;;;;9.95;5.10;;;;;;;26.83;77.73;102415.56;4975647;28;20051;-82
2023/06/24 06:30:04;;;;;;;6.72;4.93;;;;;;;26.88;78.01;102409.06;4971379;28;20388;-83
2023/06/24 06:32:31;;;;;;;9.07;5.60;;;;;;;26.92;78.33;102418.81;4935387;28;20062;-82
2023/06/24 06:34:59;;;;;;;7.55;4.90;;;;;;;26.80;78.58;102409.38;4933154;29;20721;-80
2023/06/24 06:37:27;;;;;;;8.23;5.00;;;;;;;26.63;79.22;102410.97;4962912;28;20059;-81
2023/06/24 06:39:54;;;;;;;4.93;4.43;;;;;;;26.43;77.79;102409.00;4943048;28;20054;-80
2023/06/24 06:42:21;;;;;;;6.90;4.63;;;;;;;26.04;77.91;102412.28;4927387;29;20534;-81
2023/06/24 06:44:49;;;;;;;4.78;3.92;;;;;;;25.78;78.98;102401.50;4951318;28;20047;-81
2023/06/24 06:47:17;;;;;;;8.98;4.45;;;;;;;25.62;80.82;102402.06;4937487;29;20047;-81
2023/06/24 06:49:45;;;;;;;6.78;4.30;;;;;;;25.39;82.01;102394.78;4911374;28;20055;-82
2023/06/24 06:52:14;;;;;;;6.15;4.47;;;;;;;25.26;82.94;102399.72;4963466;28;20351;-82
2023/06/24 06:54:44;;;;;;;8.02;4.10;;;;;;;25.11;83.99;102405.59;4952212;28;20062;-81
2023/06/24 06:57:11;;;;;;;6.93;4.53;;;;;;;24.97;83.63;102400.66;4945353;28;20074;-81
2023/06/24 06:59:38;;;;;;;7.55;4.35;;;;;;;24.84;84.65;102410.06;4929769;29;20047;-80
2023/06/24 07:02:06;;;;;;;6.78;4.50;;;;;;;24.71;85.83;102406.91;4970263;28;20055;-81
2023/06/24 07:04:34;;;;;;;7.90;4.50;;;;;;;24.62;86.92;102407.19;4912859;28;20062;-80
2023/06/24 07:07:02;;;;;;;160.45;25.27;;;;;;;24.51;86.99;102397.59;4978650;28;20120;-80
2023/06/24 07:09:29;;;;;;;6.80;5.30;;;;;;;24.44;87.24;102409.50;4939549;28;20082;-81
2023/06/24 07:11:57;;;;;;;7.90;5.13;;;;;;;24.33;89.06;102400.84;4943095;28;20446;-82
2023/06/24 07:14:24;;;;;;;6.13;5.00;;;;;;;24.30;89.58;102411.69;4937767;28;20043;-82
2023/06/24 07:16:52;;;;;;;7.07;5.40;;;;;;;24.30;90.25;102411.69;4929077;29;20518;-80
2023/06/24 07:19:19;;;;;;;5.72;5.22;;;;;;;24.32;90.64;102408.03;4892373;29;20059;-80
2023/06/24 07:21:46;;;;;;;7.10;5.53;;;;;;;24.36;91.37;102405.25;4931396;28;20063;-80
2023/06/24 07:24:14;;;;;;;6.72;5.10;;;;;;;24.36;91.67;102406.13;4940859;28;20090;-79
2023/06/24 07:26:41;;;;;;;6.35;5.10;;;;;;;24.35;92.38;102409.75;4940651;28;20055;-79
2023/06/24 07:29:10;;;;;;;7.18;5.65;;;;;;;24.37;92.89;102407.03;4938644;28;20058;-81
2023/06/24 07:31:37;;;;;;;5.90;5.30;;;;;;;24.35;93.66;102407.06;4943682;28;20070;-81
2023/06/24 07:34:05;;;;;;;6.35;5.68;;;;;;;24.34;93.69;102413.38;4924554;28;20043;-80
2023/06/24 07:36:33;;;;;;;9.70;6.13;;;;;;;24.30;93.67;102415.28;4929377;29;20060;-80
2023/06/24 07:39:01;;;;;;;7.75;5.90;;;;;;;24.24;94.15;102412.75;4957660;28;20047;-80
2023/06/24 07:41:28;;;;;;;7.07;5.18;;;;;;;24.27;95.46;102414.47;4950895;29;20533;-80
2023/06/24 07:43:57;;;;;;;9.13;6.07;;;;;;;24.26;94.83;102408.22;4947610;28;20058;-81
2023/06/24 07:46:27;;;;;;;9.23;5.68;;;;;;;24.26;95.84;102405.53;4947079;28;20495;-81
2023/06/24 07:48:56;;;;;;;6.38;5.68;;;;;;;24.28;95.03;102409.03;4952417;29;20050;-81
2023/06/24 07:51:23;;;;;;;9.55;5.55;;;;;;;24.29;95.57;102404.53;4905381;28;20062;-79
2023/06/24 07:53:50;;;;;;;7.45;5.78;;;;;;;24.33;95.08;102401.72;4927513;28;20043;-80
2023/06/24 07:56:18;;;;;;;7.13;5.45;;;;;;;24.40;94.93;102398.84;4947229;28;20042;-81
2023/06/24 07:58:45;;;;;;;7.25;4.93;;;;;;;24.57;94.52;102398.34;4922568;29;20526;-80
2023/06/24 08:01:12;;;;;;;9.38;6.05;;;;;;;24.77;93.84;102401.31;4927163;28;20054;-81
2023/06/24 08:03:41;;;;;;;7.68;5.55;;;;;;;24.94;92.94;102392.66;4918397;29;20047;-80
2023/06/24 08:06:09;;;;;;;9.02;5.95;;;;;;;24.96;90.49;102392.63;4907006;28;20062;-81
2023/06/24 08:08:36;;;;;;;7.68;6.00;;;;;;;24.92;90.24;102388.28;4937669;28;20058;-81
2023/06/24 08:11:04;;;;;;;5.35;4.85;;;;;;;24.88;89.68;102392.88;4975874;28;20043;-81
2023/06/24 08:13:31;;;;;;;5.63;5.05;;;;;;;24.87;90.95;102391.97;4943720;28;20050;-80
2023/06/24 08:15:59;;;;;;;6.97;4.68;;;;;;;24.96;89.72;102388.09;4915877;29;20048;-80
2023/06/24 08:18:26;;;;;;;7.72;4.72;;;;;;;25.00;89.18;102389.75;4946892;29;20064;-81
2023/06/24 08:20:53;;;;;;;7.93;5.45;;;;;;;25.02;88.25;102390.59;4904517;28;20062;-81
2023/06/24 08:23:21;;;;;;;6.65;4.90;;;;;;;25.02;88.51;102385.19;4919556;29;20082;-79
2023/06/24 08:25:48;;;;;;;5.68;5.15;;;;;;;25.10;88.18;102387.63;4940018;28;20050;-81
2023/06/24 08:28:16;;;;;;;6.88;5.10;;;;;;;25.15;88.43;102382.09;4932870;29;20059;-81
2023/06/24 08:30:44;;;;;;;8.07;5.95;;;;;;;25.17;87.85;102383.81;4941869;28;20965;-82
2023/06/24 08:33:12;;;;;;;6.43;5.30;;;;;;;25.12;88.49;102380.38;4947425;29;20689;-80
2023/06/24 08:35:39;;;;;;;5.80;5.30;;;;;;;25.18;89.14;102385.59;4950595;29;20066;-82
2023/06/24 08:38:07;;;;;;;6.00;5.22;;;;;;;25.24;89.81;102379.13;4892796;29;20055;-81
2023/06/24 08:40:34;;;;;;;6.05;5.35;;;;;;;25.29;89.03;102386.13;4971221;28;20047;-81
2023/06/24 08:43:02;;;;;;;7.45;5.60;;;;;;;25.38;89.33;102384.03;4974195;28;20051;-81
2023/06/24 08:45:30;;;;;;;9.65;5.93;;;;;;;25.34;88.56;102387.78;4948700;29;20062;-81
2023/06/24 08:48:00;;;;;;;6.18;5.25;;;;;;;25.28;88.99;102389.75;4924966;29;20039;-81
2023/06/24 08:50:40;;;;;;;9.50;5.93;;;;;;;25.27;89.19;102388.00;4969080;28;20482;-81
2023/06/24 08:53:09;;;;;;;7.90;6.03;;;;;;;25.21;88.96;102385.47;4939730;28;20046;-80
2023/06/24 08:55:44;;;;;;;9.60;6.40;;;;;;;25.12;89.02;102384.91;4955474;28;20047;-81
2023/06/24 08:58:11;;;;;;;7.00;5.72;;;;;;;25.11;89.41;102384.03;4930507;29;20051;-81
2023/06/24 09:00:39;;;;;;;8.18;6.78;;;;;;;25.17;89.99;102374.84;4946768;29;20048;-82
2023/06/24 09:03:07;;;;;;;6.78;6.03;;;;;;;25.29;90.69;102377.13;4959488;28;20048;-79
2023/06/24 09:05:36;;;;;;;8.20;5.82;;;;;;;25.42;89.25;102377.59;4966772;28;20058;-81
2023/06/24 09:08:04;;;;;;;6.93;6.18;;;;;;;25.48;88.68;102370.19;4940175;28;20039;-81
2023/06/24 09:10:33;;;;;;;8.82;5.43;;;;;;;25.47;87.57;102375.63;4954000;28;20064;-80
2023/06/24 09:13:04;;;;;;;10.25;5.85;;;;;;;25.48;88.10;102372.88;4945579;28;20047;-80
2023/06/24 09:15:36;;;;;;;5.97;5.38;;;;;;;25.53;88.17;102374.53;4949810;29;20043;-81
2023/06/24 09:18:04;;;;;;;6.40;5.72;;;;;;;25.57;86.75;102374.34;4940895;28;20047;-81
2023/06/24 09:20:39;;;;;;;6.70;5.00;;;;;;;25.55;86.78;102378.94;4965095;28;20055;-80
2023/06/24 09:23:07;;;;;;;5.40;4.75;;;;;;;25.56;87.29;102369.00;4918153;28;20055;-79
2023/06/24 09:25:34;;;;;;;6.03;5.30;;;;;;;25.52;86.21;102370.97;4957199;28;20060;-81
2023/06/24 09:28:03;;;;;;;6.65;5.40;;;;;;;25.47;86.75;102370.22;4955016;28;20046;-82
2023/06/24 09:30:31;;;;;;;6.35;5.70;;;;;;;25.53;87.65;102369.13;4935251;29;20055;-81
2023/06/24 09:32:58;;;;;;;5.80;5.20;;;;;;;25.66;87.26;102365.06;4927412;28;20070;-81
2023/06/24 09:35:26;;;;;;;8.20;4.70;;;;;;;25.81;87.32;102353.69;4953563;29;20055;-82
2023/06/24 09:37:55;;;;;;;6.13;4.80;;;;;;;26.01;87.89;102361.09;4953418;29;20419;-83
2023/06/24 09:40:23;;;;;;;6.38;5.13;;;;;;;26.19;86.40;102367.59;4901536;29;20055;-82
2023/06/24 09:42:53;;;;;;;6.35;4.97;;;;;;;26.25;85.60;102361.06;4935325;28;20439;-82
2023/06/24 09:45:29;;;;;;;8.90;6.30;;;;;;;26.29;84.49;102365.41;4947411;28;20043;-83
2023/06/24 09:47:57;;;;;;;10.65;5.38;;;;;;;26.41;83.72;102364.94;4975914;28;20043;-80
2023/06/24 09:50:25;;;;;;;7.00;5.85;;;;;;;26.61;84.05;102360.59;4962720;28;20526;-82
2023/06/24 09:52:57;;;;;;;5.60;5.10;;;;;;;26.77;83.06;102350.03;4933272;29;20056;-82
2023/06/24 09:55:25;;;;;;;5.03;4.60;;;;;;;26.83;83.18;102350.66;4917651;28;20062;-81
2023/06/24 09:57:53;;;;;;;7.22;4.90;;;;;;;26.97;81.10;102347.34;4959108;28;20063;-80
2023/06/24 10:00:22;;;;;;;6.68;4.53;;;;;;;27.06;81.12;102346.09;4931341;28;20058;-81
2023/06/24 10:02:53;;;;;;;9.65;4.18;;;;;;;27.10;77.74;102342.31;4955356;29;20063;-81
2023/06/24 10:05:21;;;;;;;5.55;4.68;;;;;;;27.17;76.87;102332.13;4953638;28;20071;-81
2023/06/24 10:07:48;;;;;;;3.95;3.33;;;;;;;27.26;78.17;102336.25;4953303;29;20503;-81
2023/06/24 10:10:16;;;;;;;5.45;4.40;;;;;;;27.34;78.19;102331.41;4919152;28;21651;-81
2023/06/24 10:12:43;;;;;;;6.22;4.50;;;;;;;27.38;74.68;102341.16;4938946;29;20051;-82
2023/06/24 10:15:11;;;;;;;6.40;3.97;;;;;;;27.40;74.71;102339.25;4922395;29;20063;-83
2023/06/24 10:17:38;;;;;;;4.93;4.13;;;;;;;27.41;72.61;102336.47;4972730;28;20050;-82
2023/06/24 10:20:07;;;;;;;6.40;3.80;;;;;;;27.46;73.80;102333.56;4930835;28;20066;-82
2023/06/24 10:22:36;;;;;;;7.60;4.43;;;;;;;27.62;74.93;102339.19;4972509;28;20051;-82
2023/06/24 10:25:07;;;;;;;5.07;3.40;;;;;;;27.68;69.46;102343.44;4945902;28;20054;-82
2023/06/24 10:27:42;;;;;;;6.85;4.00;;;;;;;27.59;71.58;102320.34;4954068;29;20051;-84
2023/06/24 10:30:20;;;;;;;4.85;3.45;;;;;;;27.41;66.35;102330.16;4952190;28;20050;-82
2023/06/24 10:32:53;;;;;;;7.22;3.70;;;;;;;27.22;69.87;102330.97;4927285;29;20503;-78
2023/06/24 10:35:25;;;;;;;5.38;3.50;;;;;;;27.18;68.55;102329.34;4945473;29;20088;-79
2023/06/24 10:37:58;;;;;;;5.75;3.30;;;;;;;27.10;66.73;102323.38;4906567;29;20495;-81
2023/06/24 10:40:41;;;;;;;4.28;3.33;;;;;;;27.07;66.65;102337.06;4961106;28;20518;-81
2023/06/24 10:43:38;;;;;;;9.25;3.38;;;;;;;26.98;66.54;102332.91;4902556;28;20051;-80
2023/06/24 10:46:15;;;;;;;3.88;3.47;;;;;;;26.91;68.99;102331.41;4919745;28;20043;-81
2023/06/24 10:48:45;;;;;;;5.28;3.78;;;;;;;26.91;69.23;102333.22;4933688;29;20059;-78
2023/06/24 10:51:13;;;;;;;6.28;3.38;;;;;;;26.87;67.09;102331.59;4954520;28;20054;-79
2023/06/24 10:53:40;;;;;;;4.72;2.97;;;;;;;26.84;66.54;102338.00;4953250;28;20522;-78
2023/06/24 10:56:08;;;;;;;7.43;3.60;;;;;;;26.90;65.25;102326.03;4919742;28;20521;-80
2023/06/24 10:58:37;;;;;;;5.10;3.23;;;;;;;26.99;64.49;102320.25;4919525;28;20055;-79
2023/06/24 11:01:09;;;;;;;3.33;3.05;;;;;;;27.18;64.65;102321.22;4903274;29;20055;-79
2023/06/24 11:03:40;;;;;;;52.75;6.47;;;;;;;27.32;64.89;102315.22;4937156;28;20063;-78
2023/06/24 11:06:10;;;;;;;4.72;3.45;;;;;;;27.32;65.50;102330.59;4947318;29;20051;-80
2023/06/24 11:08:45;;;;;;;3.83;3.22;;;;;;;27.17;64.64;102322.16;4948645;28;20059;-81
2023/06/24 11:11:19;;;;;;;4.45;3.20;;;;;;;27.04;63.24;102318.22;4930040;28;20046;-81
2023/06/24 11:13:48;;;;;;;4.70;3.33;;;;;;;26.91;64.70;102315.16;4931359;28;20047;-81
2023/06/24 11:16:20;;;;;;;8.65;3.97;;;;;;;26.93;65.14;102318.69;4948945;28;20062;-82
2023/06/24 11:19:38;;;;;;;5.32;4.38;;;;;;;26.93;61.82;102312.41;4961664;28;20058;-85
2023/06/24 11:22:07;;;;;;;16.30;4.40;;;;;;;26.82;64.35;102310.13;4953375;28;20062;-85
2023/06/24 11:24:35;;;;;;;3.08;2.78;;;;;;;26.86;64.13;102313.59;4951814;28;20074;-84
2023/06/24 11:27:04;;;;;;;4.38;3.00;;;;;;;27.04;64.58;102307.41;4939324;29;20074;-84